Terminal Aerodrome Forecast
Issued by NWS

Home | Current Version | Previous Version | Text Only | Print | Product List | Glossary On
Versions: 1 2 3 4 5 6 7 8 9 10 11 12 13 14 15 16 17 18 19 20 21 22 23 24 25 26 27 28 29 30 31 32
643
FTUS46 KPQR 171731
TAFONP
TAF
KONP 171731Z 1718/1818 16012G22KT P6SM SCT025 OVC045
     FM172000 18025G37KT P6SM -RA OVC040
     FM172200 19028G40KT 4SM -RA BR SCT015 OVC025
     FM180300 21020G30KT 5SM -RA BR SCT015 BKN025 OVC040
     FM180700 22020G28KT P6SM -SHRA SCT015 BKN035 OVC050=

USA.gov is the U.S. government's official web portal to all federal, state and local government web resources and services.